Baldwin County Airport


Codes: KMLJ/
Name: Baldwin County Airport
City: Milledgeville
Country: United States
Elevation: 385 ft.

Photos at Baldwin County Airport


   Photos courtesy of SpottingLog. You can add your own sightings and photos by signing up for a free trial today.



No photos found.

Weather at Baldwin County Airport


Time (UTC)DescriptionTempratureWindCloud coverageVisibilityPressureHumidity
17-Jun-2024 06:00Light Rain26°C7 mph, SE20%10000m1019hPa68%
17-Jun-2024 09:00Scattered Clouds24°C4 mph, SE45%10000m1019hPa82%
17-Jun-2024 12:00Broken Clouds24°C4 mph, SE56%10000m1021hPa83%
17-Jun-2024 15:00Broken Clouds30°C7 mph, E63%10000m1021hPa54%
17-Jun-2024 18:00Broken Clouds34°C11 mph, E60%10000m1019hPa41%
17-Jun-2024 21:00Broken Clouds31°C9 mph, SE79%10000m1018hPa51%
18-Jun-2024 00:00Overcast Clouds29°C9 mph, SE89%10000m1018hPa56%
18-Jun-2024 03:00Overcast Clouds26°C9 mph, SE100%10000m1020hPa60%
18-Jun-2024 06:00Overcast Clouds22°C4 mph, SE97%10000m1020hPa72%
18-Jun-2024 09:00Broken Clouds20°C4 mph, E73%10000m1020hPa85%
18-Jun-2024 12:00Overcast Clouds22°C7 mph, E87%10000m1022hPa79%
18-Jun-2024 15:00Overcast Clouds29°C11 mph, E100%10000m1021hPa53%
18-Jun-2024 18:00Overcast Clouds33°C11 mph, E92%10000m1019hPa30%
18-Jun-2024 21:00Broken Clouds33°C11 mph, E79%10000m1018hPa29%
19-Jun-2024 00:00Overcast Clouds28°C4 mph, SE85%10000m1018hPa47%
19-Jun-2024 03:00Overcast Clouds25°C9 mph, SE100%10000m1021hPa64%
19-Jun-2024 06:00Overcast Clouds21°C4 mph, E100%10000m1021hPa79%
19-Jun-2024 09:00Overcast Clouds19°C4 mph, NE100%10000m1022hPa88%
19-Jun-2024 12:00Overcast Clouds21°C7 mph, NE100%10000m1023hPa75%
19-Jun-2024 15:00Overcast Clouds28°C11 mph, E100%10000m1023hPa48%
19-Jun-2024 18:00Overcast Clouds32°C13 mph, E100%10000m1022hPa33%
19-Jun-2024 21:00Overcast Clouds33°C13 mph, E100%10000m1020hPa33%
20-Jun-2024 00:00Overcast Clouds28°C7 mph, NE94%10000m1021hPa50%
20-Jun-2024 03:00Overcast Clouds25°C9 mph, SE100%10000m1022hPa64%
20-Jun-2024 06:00Overcast Clouds21°C4 mph, E99%10000m1023hPa81%
20-Jun-2024 09:00Overcast Clouds19°C4 mph, NE100%10000m1023hPa85%
20-Jun-2024 12:00Overcast Clouds22°C7 mph, NE92%10000m1025hPa77%
20-Jun-2024 15:00Clear Sky28°C11 mph, E2%10000m1024hPa46%
20-Jun-2024 18:00Clear Sky32°C11 mph, E2%10000m1022hPa31%
20-Jun-2024 21:00Clear Sky33°C11 mph, E0%10000m1020hPa29%
21-Jun-2024 00:00Clear Sky29°C4 mph, E2%10000m1021hPa46%
21-Jun-2024 03:00Clear Sky24°C7 mph, E0%10000m1022hPa55%
21-Jun-2024 06:00Clear Sky22°C4 mph, NE0%10000m1022hPa69%
21-Jun-2024 09:00Clear Sky20°C7 mph, NE0%10000m1022hPa78%
21-Jun-2024 12:00Clear Sky23°C9 mph, NE1%10000m1023hPa78%
21-Jun-2024 15:00Light Rain30°C11 mph, E31%10000m1022hPa55%
21-Jun-2024 18:00Broken Clouds31°C11 mph, E60%10000m1020hPa50%
21-Jun-2024 21:00Light Rain28°C4 mph, E96%10000m1019hPa61%
22-Jun-2024 00:00Broken Clouds30°C2 mph, NE80%10000m1018hPa58%
22-Jun-2024 03:00Broken Clouds26°C4 mph, E82%10000m1020hPa67%